sensor_id;sensor_type;location;lat;lon;timestamp;P1;P2;P0
49343;PMS5003;35210;41.606;-87.602;2022-07-03T00:00:00;11.80;10.60;6.80
49343;PMS5003;35210;41.606;-87.602;2022-07-03T00:02:29;12.00;12.00;9.60
49343;PMS5003;35210;41.606;-87.602;2022-07-03T00:04:57;11.80;10.00;7.00
49343;PMS5003;35210;41.606;-87.602;2022-07-03T00:07:25;16.80;14.00;8.00
49343;PMS5003;35210;41.606;-87.602;2022-07-03T00:09:54;14.40;14.40;8.00
49343;PMS5003;35210;41.606;-87.602;2022-07-03T00:12:24;14.60;12.80;8.40
49343;PMS5003;35210;41.606;-87.602;2022-07-03T00:14:52;12.40;10.60;6.20
49343;PMS5003;35210;41.606;-87.602;2022-07-03T00:17:23;15.40;13.40;10.40
49343;PMS5003;35210;41.606;-87.602;2022-07-03T00:19:51;14.60;13.60;9.80
49343;PMS5003;35210;41.606;-87.602;2022-07-03T00:22:19;13.00;13.00;8.00
49343;PMS5003;35210;41.606;-87.602;2022-07-03T00:24:50;15.00;15.00;9.20
49343;PMS5003;35210;41.606;-87.602;2022-07-03T00:27:20;17.20;15.60;10.80
49343;PMS5003;35210;41.606;-87.602;2022-07-03T00:29:50;12.20;12.20;7.20
49343;PMS5003;35210;41.606;-87.602;2022-07-03T00:32:24;16.20;13.00;8.40
49343;PMS5003;35210;41.606;-87.602;2022-07-03T00:34:54;13.20;12.20;8.00
49343;PMS5003;35210;41.606;-87.602;2022-07-03T00:37:23;12.00;12.00;8.20
49343;PMS5003;35210;41.606;-87.602;2022-07-03T00:39:51;17.00;13.80;9.00
49343;PMS5003;35210;41.606;-87.602;2022-07-03T00:42:20;13.00;11.60;7.20
49343;PMS5003;35210;41.606;-87.602;2022-07-03T00:44:48;11.60;11.60;8.60
49343;PMS5003;35210;41.606;-87.602;2022-07-03T00:47:19;18.40;14.00;9.40
49343;PMS5003;35210;41.606;-87.602;2022-07-03T00:49:50;18.80;15.80;9.60
49343;PMS5003;35210;41.606;-87.602;2022-07-03T00:52:22;13.00;11.20;7.40
49343;PMS5003;35210;41.606;-87.602;2022-07-03T00:54:51;12.60;11.80;7.00
49343;PMS5003;35210;41.606;-87.602;2022-07-03T00:57:21;9.60;9.60;6.40
49343;PMS5003;35210;41.606;-87.602;2022-07-03T00:59:51;14.00;12.60;7.00
49343;PMS5003;35210;41.606;-87.602;2022-07-03T01:02:25;16.40;14.20;9.00
49343;PMS5003;35210;41.606;-87.602;2022-07-03T01:05:06;14.00;13.00;8.00
49343;PMS5003;35210;41.606;-87.602;2022-07-03T01:07:41;14.20;13.60;8.60
49343;PMS5003;35210;41.606;-87.602;2022-07-03T01:10:17;14.20;14.00;11.00
49343;PMS5003;35210;41.606;-87.602;2022-07-03T01:12:54;11.20;11.20;9.00
49343;PMS5003;35210;41.606;-87.602;2022-07-03T01:15:29;14.20;13.00;8.80
49343;PMS5003;35210;41.606;-87.602;2022-07-03T01:18:06;14.00;13.40;9.00
49343;PMS5003;35210;41.606;-87.602;2022-07-03T01:20:51;17.40;16.20;9.60
49343;PMS5003;35210;41.606;-87.602;2022-07-03T01:23:30;13.80;13.80;9.00
49343;PMS5003;35210;41.606;-87.602;2022-07-03T01:26:10;17.00;12.60;8.00
49343;PMS5003;35210;41.606;-87.602;2022-07-03T01:28:44;17.60;15.00;9.80
49343;PMS5003;35210;41.606;-87.602;2022-07-03T01:31:17;16.80;15.00;9.00
49343;PMS5003;35210;41.606;-87.602;2022-07-03T01:33:49;15.20;14.80;8.80
49343;PMS5003;35210;41.606;-87.602;2022-07-03T01:36:18;15.80;14.20;9.60
49343;PMS5003;35210;41.606;-87.602;2022-07-03T01:38:51;18.20;15.20;10.00
49343;PMS5003;35210;41.606;-87.602;2022-07-03T01:41:23;11.80;11.80;7.00
49343;PMS5003;35210;41.606;-87.602;2022-07-03T01:43:58;14.00;12.60;8.60
49343;PMS5003;35210;41.606;-87.602;2022-07-03T01:46:29;16.20;13.20;8.00
49343;PMS5003;35210;41.606;-87.602;2022-07-03T01:48:59;13.60;13.60;10.00
49343;PMS5003;35210;41.606;-87.602;2022-07-03T01:51:28;15.00;14.00;10.40
49343;PMS5003;35210;41.606;-87.602;2022-07-03T01:53:57;14.00;14.00;9.20
49343;PMS5003;35210;41.606;-87.602;2022-07-03T01:56:29;14.80;12.80;10.00
49343;PMS5003;35210;41.606;-87.602;2022-07-03T01:59:00;13.80;13.80;7.60
49343;PMS5003;35210;41.606;-87.602;2022-07-03T02:01:30;18.00;16.40;10.60
49343;PMS5003;35210;41.606;-87.602;2022-07-03T02:04:08;15.80;15.20;9.60
49343;PMS5003;35210;41.606;-87.602;2022-07-03T02:06:48;16.80;14.00;9.20
49343;PMS5003;35210;41.606;-87.602;2022-07-03T02:09:28;14.20;14.20;9.40
49343;PMS5003;35210;41.606;-87.602;2022-07-03T02:12:11;13.40;13.20;10.60
49343;PMS5003;35210;41.606;-87.602;2022-07-03T02:14:42;10.20;10.20;5.80
49343;PMS5003;35210;41.606;-87.602;2022-07-03T02:17:16;15.00;15.00;10.00
49343;PMS5003;35210;41.606;-87.602;2022-07-03T02:19:48;13.40;13.20;9.00
49343;PMS5003;35210;41.606;-87.602;2022-07-03T02:22:22;18.20;15.60;11.60
49343;PMS5003;35210;41.606;-87.602;2022-07-03T02:24:56;15.60;15.60;9.40
49343;PMS5003;35210;41.606;-87.602;2022-07-03T02:27:36;15.40;15.00;10.40
49343;PMS5003;35210;41.606;-87.602;2022-07-03T02:30:10;16.60;16.60;10.40
49343;PMS5003;35210;41.606;-87.602;2022-07-03T02:32:42;14.60;14.60;10.20
49343;PMS5003;35210;41.606;-87.602;2022-07-03T02:35:12;16.40;16.40;11.00
49343;PMS5003;35210;41.606;-87.602;2022-07-03T02:37:56;17.00;17.00;13.00
49343;PMS5003;35210;41.606;-87.602;2022-07-03T02:40:32;17.80;14.80;11.40
49343;PMS5003;35210;41.606;-87.602;2022-07-03T02:43:13;15.60;14.00;11.00
49343;PMS5003;35210;41.606;-87.602;2022-07-03T02:45:49;18.60;17.20;12.60
49343;PMS5003;35210;41.606;-87.602;2022-07-03T02:48:25;14.80;14.00;10.20
49343;PMS5003;35210;41.606;-87.602;2022-07-03T02:51:00;19.20;17.00;10.40
49343;PMS5003;35210;41.606;-87.602;2022-07-03T02:53:35;15.60;15.60;10.20
49343;PMS5003;35210;41.606;-87.602;2022-07-03T02:56:14;22.40;21.00;13.00
49343;PMS5003;35210;41.606;-87.602;2022-07-03T02:58:53;19.80;18.40;12.40
49343;PMS5003;35210;41.606;-87.602;2022-07-03T03:01:35;15.00;15.00;9.20
49343;PMS5003;35210;41.606;-87.602;2022-07-03T03:04:09;16.00;15.00;9.20
49343;PMS5003;35210;41.606;-87.602;2022-07-03T03:06:46;17.60;16.20;10.20
49343;PMS5003;35210;41.606;-87.602;2022-07-03T03:09:20;13.00;11.00;7.00
49343;PMS5003;35210;41.606;-87.602;2022-07-03T03:12:04;15.60;15.20;11.00
49343;PMS5003;35210;41.606;-87.602;2022-07-03T03:14:38;20.40;20.40;13.80
49343;PMS5003;35210;41.606;-87.602;2022-07-03T03:17:07;19.60;19.60;12.40
49343;PMS5003;35210;41.606;-87.602;2022-07-03T03:19:40;24.00;19.20;12.00
49343;PMS5003;35210;41.606;-87.602;2022-07-03T03:22:16;18.80;18.00;12.20
49343;PMS5003;35210;41.606;-87.602;2022-07-03T03:24:55;21.00;19.00;13.80
49343;PMS5003;35210;41.606;-87.602;2022-07-03T03:27:23;22.20;19.20;13.40
49343;PMS5003;35210;41.606;-87.602;2022-07-03T03:29:53;20.60;19.80;14.60
49343;PMS5003;35210;41.606;-87.602;2022-07-03T03:32:22;19.00;18.00;11.00
49343;PMS5003;35210;41.606;-87.602;2022-07-03T03:34:52;21.00;16.80;12.20
49343;PMS5003;35210;41.606;-87.602;2022-07-03T03:37:21;21.80;20.40;14.80
49343;PMS5003;35210;41.606;-87.602;2022-07-03T03:39:49;27.60;22.40;14.20
49343;PMS5003;35210;41.606;-87.602;2022-07-03T03:42:17;23.60;21.20;15.60
49343;PMS5003;35210;41.606;-87.602;2022-07-03T03:44:45;24.80;22.00;15.00
49343;PMS5003;35210;41.606;-87.602;2022-07-03T03:47:14;24.40;23.40;16.00
49343;PMS5003;35210;41.606;-87.602;2022-07-03T03:49:42;23.20;23.00;15.80
49343;PMS5003;35210;41.606;-87.602;2022-07-03T03:52:10;26.80;25.40;17.20
49343;PMS5003;35210;41.606;-87.602;2022-07-03T03:54:39;28.60;27.00;17.80
49343;PMS5003;35210;41.606;-87.602;2022-07-03T03:57:17;23.20;22.20;15.20
49343;PMS5003;35210;41.606;-87.602;2022-07-03T03:59:47;30.40;26.00;17.60
49343;PMS5003;35210;41.606;-87.602;2022-07-03T04:02:18;25.20;23.80;18.00
49343;PMS5003;35210;41.606;-87.602;2022-07-03T04:04:46;29.60;24.40;16.60
49343;PMS5003;35210;41.606;-87.602;2022-07-03T04:07:14;24.00;22.80;14.80
49343;PMS5003;35210;41.606;-87.602;2022-07-03T04:09:42;25.60;24.00;17.00
49343;PMS5003;35210;41.606;-87.602;2022-07-03T04:12:11;30.20;27.00;17.60
49343;PMS5003;35210;41.606;-87.602;2022-07-03T04:14:39;29.25;27.25;17.50
49343;PMS5003;35210;41.606;-87.602;2022-07-03T04:17:08;26.60;23.60;16.20
49343;PMS5003;35210;41.606;-87.602;2022-07-03T04:19:38;22.20;21.80;16.40
49343;PMS5003;35210;41.606;-87.602;2022-07-03T04:22:06;30.00;28.40;18.40
49343;PMS5003;35210;41.606;-87.602;2022-07-03T04:24:35;25.40;23.20;16.40
49343;PMS5003;35210;41.606;-87.602;2022-07-03T04:27:03;27.80;24.20;14.00
49343;PMS5003;35210;41.606;-87.602;2022-07-03T04:29:32;27.80;25.80;16.00
49343;PMS5003;35210;41.606;-87.602;2022-07-03T04:32:00;24.20;22.20;15.60
49343;PMS5003;35210;41.606;-87.602;2022-07-03T04:34:28;32.80;27.00;18.00
49343;PMS5003;35210;41.606;-87.602;2022-07-03T04:36:59;27.20;25.60;18.00
49343;PMS5003;35210;41.606;-87.602;2022-07-03T04:39:27;24.80;23.20;16.00
49343;PMS5003;35210;41.606;-87.602;2022-07-03T04:41:56;28.60;25.80;18.20
49343;PMS5003;35210;41.606;-87.602;2022-07-03T04:44:24;25.00;23.40;16.00
49343;PMS5003;35210;41.606;-87.602;2022-07-03T04:46:53;30.75;27.00;18.25
49343;PMS5003;35210;41.606;-87.602;2022-07-03T04:49:21;23.40;20.00;15.20
49343;PMS5003;35210;41.606;-87.602;2022-07-03T04:51:49;24.80;24.80;17.00
49343;PMS5003;35210;41.606;-87.602;2022-07-03T04:54:20;24.00;22.00;15.00
49343;PMS5003;35210;41.606;-87.602;2022-07-03T04:56:48;23.00;23.00;15.00
49343;PMS5003;35210;41.606;-87.602;2022-07-03T04:59:17;23.40;22.20;12.60
49343;PMS5003;35210;41.606;-87.602;2022-07-03T05:01:45;28.40;26.60;18.20
49343;PMS5003;35210;41.606;-87.602;2022-07-03T05:04:15;26.20;21.60;14.40
49343;PMS5003;35210;41.606;-87.602;2022-07-03T05:06:43;25.80;25.80;16.20
49343;PMS5003;35210;41.606;-87.602;2022-07-03T05:09:12;29.00;25.60;17.40
49343;PMS5003;35210;41.606;-87.602;2022-07-03T05:11:42;27.40;25.20;16.40
49343;PMS5003;35210;41.606;-87.602;2022-07-03T05:14:10;22.60;21.60;16.00
49343;PMS5003;35210;41.606;-87.602;2022-07-03T05:16:39;23.40;23.40;16.00
49343;PMS5003;35210;41.606;-87.602;2022-07-03T05:19:07;21.20;21.20;13.60
49343;PMS5003;35210;41.606;-87.602;2022-07-03T05:21:35;24.80;23.60;15.00
49343;PMS5003;35210;41.606;-87.602;2022-07-03T05:24:03;22.40;22.20;15.00
49343;PMS5003;35210;41.606;-87.602;2022-07-03T05:26:32;23.40;22.40;15.80
49343;PMS5003;35210;41.606;-87.602;2022-07-03T05:29:01;21.40;20.20;13.80
49343;PMS5003;35210;41.606;-87.602;2022-07-03T05:31:29;26.40;25.20;16.00
49343;PMS5003;35210;41.606;-87.602;2022-07-03T05:33:57;22.80;19.00;13.20
49343;PMS5003;35210;41.606;-87.602;2022-07-03T05:36:25;21.80;19.60;12.40
49343;PMS5003;35210;41.606;-87.602;2022-07-03T05:38:53;25.60;24.20;16.40
49343;PMS5003;35210;41.606;-87.602;2022-07-03T05:41:38;27.00;24.00;16.60
49343;PMS5003;35210;41.606;-87.602;2022-07-03T05:44:08;25.20;23.20;14.40
49343;PMS5003;35210;41.606;-87.602;2022-07-03T05:46:36;29.40;26.00;17.60
49343;PMS5003;35210;41.606;-87.602;2022-07-03T05:49:04;27.40;24.20;16.00
49343;PMS5003;35210;41.606;-87.602;2022-07-03T05:51:32;25.40;24.40;15.60
49343;PMS5003;35210;41.606;-87.602;2022-07-03T05:54:00;22.20;20.60;12.80
49343;PMS5003;35210;41.606;-87.602;2022-07-03T05:56:28;24.20;23.40;16.60
49343;PMS5003;35210;41.606;-87.602;2022-07-03T05:58:56;20.60;20.60;15.00
49343;PMS5003;35210;41.606;-87.602;2022-07-03T06:01:26;27.20;24.60;16.20
49343;PMS5003;35210;41.606;-87.602;2022-07-03T06:03:54;26.00;22.60;13.80
49343;PMS5003;35210;41.606;-87.602;2022-07-03T06:06:23;25.80;25.80;17.60
49343;PMS5003;35210;41.606;-87.602;2022-07-03T06:08:51;25.40;24.40;15.80
49343;PMS5003;35210;41.606;-87.602;2022-07-03T06:11:20;22.00;22.00;16.60
49343;PMS5003;35210;41.606;-87.602;2022-07-03T06:13:48;22.80;22.80;13.80
49343;PMS5003;35210;41.606;-87.602;2022-07-03T06:16:16;21.60;21.20;15.60
49343;PMS5003;35210;41.606;-87.602;2022-07-03T06:18:47;27.40;23.20;15.00
49343;PMS5003;35210;41.606;-87.602;2022-07-03T06:21:15;26.80;23.00;15.40
49343;PMS5003;35210;41.606;-87.602;2022-07-03T06:23:44;27.60;25.80;17.40
49343;PMS5003;35210;41.606;-87.602;2022-07-03T06:26:12;28.20;23.60;16.60
49343;PMS5003;35210;41.606;-87.602;2022-07-03T06:28:40;26.60;25.00;15.80
49343;PMS5003;35210;41.606;-87.602;2022-07-03T06:31:08;29.00;26.00;16.80
49343;PMS5003;35210;41.606;-87.602;2022-07-03T06:33:37;23.20;23.20;15.80
49343;PMS5003;35210;41.606;-87.602;2022-07-03T06:36:06;24.60;24.60;16.60
49343;PMS5003;35210;41.606;-87.602;2022-07-03T06:38:35;26.40;23.40;15.60
49343;PMS5003;35210;41.606;-87.602;2022-07-03T06:41:03;24.40;24.40;16.00
49343;PMS5003;35210;41.606;-87.602;2022-07-03T06:43:32;21.60;21.60;15.00
49343;PMS5003;35210;41.606;-87.602;2022-07-03T06:46:00;27.80;23.60;16.00
49343;PMS5003;35210;41.606;-87.602;2022-07-03T06:48:29;25.00;24.00;14.80
49343;PMS5003;35210;41.606;-87.602;2022-07-03T06:50:57;29.20;28.60;17.20
49343;PMS5003;35210;41.606;-87.602;2022-07-03T06:53:26;27.60;25.00;15.20
49343;PMS5003;35210;41.606;-87.602;2022-07-03T06:55:54;21.80;21.80;15.80
49343;PMS5003;35210;41.606;-87.602;2022-07-03T06:58:23;23.80;21.40;15.40
49343;PMS5003;35210;41.606;-87.602;2022-07-03T07:00:51;22.80;22.00;14.00
49343;PMS5003;35210;41.606;-87.602;2022-07-03T07:03:20;20.60;19.20;14.20
49343;PMS5003;35210;41.606;-87.602;2022-07-03T07:05:48;23.40;22.20;14.80
49343;PMS5003;35210;41.606;-87.602;2022-07-03T07:08:16;27.60;24.00;15.40
49343;PMS5003;35210;41.606;-87.602;2022-07-03T07:10:45;23.60;23.60;15.80
49343;PMS5003;35210;41.606;-87.602;2022-07-03T07:13:14;23.40;21.40;14.20
49343;PMS5003;35210;41.606;-87.602;2022-07-03T07:15:42;25.80;24.20;16.40
49343;PMS5003;35210;41.606;-87.602;2022-07-03T07:18:10;22.40;18.40;12.00
49343;PMS5003;35210;41.606;-87.602;2022-07-03T07:20:38;22.80;22.80;17.00
49343;PMS5003;35210;41.606;-87.602;2022-07-03T07:23:06;21.60;18.80;10.40
49343;PMS5003;35210;41.606;-87.602;2022-07-03T07:25:34;30.00;25.80;16.20
49343;PMS5003;35210;41.606;-87.602;2022-07-03T07:28:05;25.60;23.00;15.20
49343;PMS5003;35210;41.606;-87.602;2022-07-03T07:30:34;25.20;22.60;14.40
49343;PMS5003;35210;41.606;-87.602;2022-07-03T07:33:02;23.20;22.60;15.20
49343;PMS5003;35210;41.606;-87.602;2022-07-03T07:35:30;27.40;25.00;16.00
49343;PMS5003;35210;41.606;-87.602;2022-07-03T07:37:58;20.80;20.60;14.80
49343;PMS5003;35210;41.606;-87.602;2022-07-03T07:40:26;22.80;22.20;14.40
49343;PMS5003;35210;41.606;-87.602;2022-07-03T07:42:56;27.80;26.00;17.40
49343;PMS5003;35210;41.606;-87.602;2022-07-03T07:45:26;26.60;25.20;16.40
49343;PMS5003;35210;41.606;-87.602;2022-07-03T07:47:54;28.40;24.60;17.60
49343;PMS5003;35210;41.606;-87.602;2022-07-03T07:50:22;23.40;21.80;13.00
49343;PMS5003;35210;41.606;-87.602;2022-07-03T07:52:50;24.60;23.80;15.40
49343;PMS5003;35210;41.606;-87.602;2022-07-03T07:55:18;22.60;22.00;15.00
49343;PMS5003;35210;41.606;-87.602;2022-07-03T07:57:47;22.40;21.80;14.60
49343;PMS5003;35210;41.606;-87.602;2022-07-03T08:00:16;24.20;24.20;16.20
49343;PMS5003;35210;41.606;-87.602;2022-07-03T08:02:47;23.80;22.80;16.20
49343;PMS5003;35210;41.606;-87.602;2022-07-03T08:05:32;22.60;20.80;14.40
49343;PMS5003;35210;41.606;-87.602;2022-07-03T08:08:07;25.20;24.60;16.00
49343;PMS5003;35210;41.606;-87.602;2022-07-03T08:10:36;27.20;23.40;14.80
49343;PMS5003;35210;41.606;-87.602;2022-07-03T08:13:06;17.40;15.00;9.00
49343;PMS5003;35210;41.606;-87.602;2022-07-03T08:15:34;22.80;21.80;14.20
49343;PMS5003;35210;41.606;-87.602;2022-07-03T08:18:04;21.00;20.40;13.40
49343;PMS5003;35210;41.606;-87.602;2022-07-03T08:20:32;23.00;22.20;15.80
49343;PMS5003;35210;41.606;-87.602;2022-07-03T08:23:01;23.00;21.80;15.60
49343;PMS5003;35210;41.606;-87.602;2022-07-03T08:25:31;21.00;19.60;14.00
49343;PMS5003;35210;41.606;-87.602;2022-07-03T08:27:59;21.60;20.60;14.40
49343;PMS5003;35210;41.606;-87.602;2022-07-03T08:30:27;25.00;23.00;14.80
49343;PMS5003;35210;41.606;-87.602;2022-07-03T08:32:56;24.40;21.60;15.00
49343;PMS5003;35210;41.606;-87.602;2022-07-03T08:35:26;22.60;22.20;15.00
49343;PMS5003;35210;41.606;-87.602;2022-07-03T08:37:55;22.60;20.40;11.80
49343;PMS5003;35210;41.606;-87.602;2022-07-03T08:40:23;19.60;17.00;14.00
49343;PMS5003;35210;41.606;-87.602;2022-07-03T08:42:52;24.80;23.00;13.60
49343;PMS5003;35210;41.606;-87.602;2022-07-03T08:45:22;25.20;22.00;15.00
49343;PMS5003;35210;41.606;-87.602;2022-07-03T08:47:53;22.60;21.80;14.40
49343;PMS5003;35210;41.606;-87.602;2022-07-03T08:50:22;22.00;20.40;13.80
49343;PMS5003;35210;41.606;-87.602;2022-07-03T08:52:52;23.00;20.60;14.80
49343;PMS5003;35210;41.606;-87.602;2022-07-03T08:55:20;24.40;22.00;15.20
49343;PMS5003;35210;41.606;-87.602;2022-07-03T08:57:49;22.40;20.60;14.00
49343;PMS5003;35210;41.606;-87.602;2022-07-03T09:00:18;22.60;20.80;13.00
49343;PMS5003;35210;41.606;-87.602;2022-07-03T09:02:47;20.00;19.00;13.80
49343;PMS5003;35210;41.606;-87.602;2022-07-03T09:05:16;24.40;22.80;16.00
49343;PMS5003;35210;41.606;-87.602;2022-07-03T09:07:45;24.00;24.00;16.80
49343;PMS5003;35210;41.606;-87.602;2022-07-03T09:10:16;24.40;22.00;15.00
49343;PMS5003;35210;41.606;-87.602;2022-07-03T09:12:44;21.40;21.20;14.40
49343;PMS5003;35210;41.606;-87.602;2022-07-03T09:15:14;26.60;24.00;15.20
49343;PMS5003;35210;41.606;-87.602;2022-07-03T09:17:55;20.60;20.60;14.60
49343;PMS5003;35210;41.606;-87.602;2022-07-03T09:20:28;19.60;19.60;12.60
49343;PMS5003;35210;41.606;-87.602;2022-07-03T09:23:14;24.00;22.40;15.40
49343;PMS5003;35210;41.606;-87.602;2022-07-03T09:25:57;23.80;22.80;16.00
49343;PMS5003;35210;41.606;-87.602;2022-07-03T09:28:41;19.80;17.00;12.40
49343;PMS5003;35210;41.606;-87.602;2022-07-03T09:31:11;20.00;18.40;13.80
49343;PMS5003;35210;41.606;-87.602;2022-07-03T09:33:48;18.00;18.00;11.20
49343;PMS5003;35210;41.606;-87.602;2022-07-03T09:36:18;21.20;20.00;14.00
49343;PMS5003;35210;41.606;-87.602;2022-07-03T09:38:50;21.60;18.00;13.00
49343;PMS5003;35210;41.606;-87.602;2022-07-03T09:41:20;14.20;14.20;10.20
49343;PMS5003;35210;41.606;-87.602;2022-07-03T09:43:48;21.20;21.20;15.00
49343;PMS5003;35210;41.606;-87.602;2022-07-03T09:46:16;20.60;19.40;13.00
49343;PMS5003;35210;41.606;-87.602;2022-07-03T09:48:45;20.80;19.60;14.00
49343;PMS5003;35210;41.606;-87.602;2022-07-03T09:51:17;19.60;18.00;12.80
49343;PMS5003;35210;41.606;-87.602;2022-07-03T09:53:49;20.00;20.00;13.00
49343;PMS5003;35210;41.606;-87.602;2022-07-03T09:56:22;22.00;20.60;13.00
49343;PMS5003;35210;41.606;-87.602;2022-07-03T09:59:06;20.60;16.60;10.40
49343;PMS5003;35210;41.606;-87.602;2022-07-03T10:01:36;19.80;19.80;13.60
49343;PMS5003;35210;41.606;-87.602;2022-07-03T10:04:10;18.00;18.00;12.00
49343;PMS5003;35210;41.606;-87.602;2022-07-03T10:06:46;21.20;18.80;12.00
49343;PMS5003;35210;41.606;-87.602;2022-07-03T10:09:16;18.80;18.00;12.40
49343;PMS5003;35210;41.606;-87.602;2022-07-03T10:11:47;20.40;20.40;12.20
49343;PMS5003;35210;41.606;-87.602;2022-07-03T10:14:16;16.60;16.60;10.60
49343;PMS5003;35210;41.606;-87.602;2022-07-03T10:16:45;22.40;20.80;11.80
49343;PMS5003;35210;41.606;-87.602;2022-07-03T10:19:17;17.20;15.40;13.00
49343;PMS5003;35210;41.606;-87.602;2022-07-03T10:21:48;20.20;19.80;12.80
49343;PMS5003;35210;41.606;-87.602;2022-07-03T10:24:21;20.60;17.20;13.40
49343;PMS5003;35210;41.606;-87.602;2022-07-03T10:26:52;19.20;18.80;13.20
49343;PMS5003;35210;41.606;-87.602;2022-07-03T10:29:22;21.60;20.60;12.40
49343;PMS5003;35210;41.606;-87.602;2022-07-03T10:31:51;17.40;16.40;11.00
49343;PMS5003;35210;41.606;-87.602;2022-07-03T10:34:20;20.00;16.40;9.60
49343;PMS5003;35210;41.606;-87.602;2022-07-03T10:36:51;20.20;18.40;11.40
49343;PMS5003;35210;41.606;-87.602;2022-07-03T10:39:25;21.40;18.60;12.00
49343;PMS5003;35210;41.606;-87.602;2022-07-03T10:42:03;17.40;15.60;9.20
49343;PMS5003;35210;41.606;-87.602;2022-07-03T10:44:51;19.00;18.00;12.00
49343;PMS5003;35210;41.606;-87.602;2022-07-03T10:47:36;17.60;16.20;10.00
49343;PMS5003;35210;41.606;-87.602;2022-07-03T10:50:07;21.40;21.20;13.40
49343;PMS5003;35210;41.606;-87.602;2022-07-03T10:52:37;17.60;17.60;11.00
49343;PMS5003;35210;41.606;-87.602;2022-07-03T10:55:07;23.80;20.80;12.60
49343;PMS5003;35210;41.606;-87.602;2022-07-03T10:57:37;17.40;16.80;10.00
49343;PMS5003;35210;41.606;-87.602;2022-07-03T11:00:16;17.40;16.00;12.00
49343;PMS5003;35210;41.606;-87.602;2022-07-03T11:02:47;21.20;20.60;13.40
49343;PMS5003;35210;41.606;-87.602;2022-07-03T11:05:20;17.20;16.60;12.00
49343;PMS5003;35210;41.606;-87.602;2022-07-03T11:08:08;16.60;15.40;9.80
49343;PMS5003;35210;41.606;-87.602;2022-07-03T11:10:38;18.20;17.40;12.00
49343;PMS5003;35210;41.606;-87.602;2022-07-03T11:13:15;18.80;17.80;12.40
49343;PMS5003;35210;41.606;-87.602;2022-07-03T11:15:47;16.20;16.20;11.20
49343;PMS5003;35210;41.606;-87.602;2022-07-03T11:18:20;21.00;18.60;12.00
49343;PMS5003;35210;41.606;-87.602;2022-07-03T11:20:59;16.40;15.60;12.00
49343;PMS5003;35210;41.606;-87.602;2022-07-03T11:23:52;19.00;18.00;12.60
49343;PMS5003;35210;41.606;-87.602;2022-07-03T11:26:41;17.80;16.40;11.40
49343;PMS5003;35210;41.606;-87.602;2022-07-03T11:31:54;15.40;15.40;13.00
49343;PMS5003;35210;41.606;-87.602;2022-07-03T11:34:24;17.20;17.20;12.00
49343;PMS5003;35210;41.606;-87.602;2022-07-03T11:36:52;19.40;17.60;13.00
49343;PMS5003;35210;41.606;-87.602;2022-07-03T11:39:20;17.20;16.00;9.00
49343;PMS5003;35210;41.606;-87.602;2022-07-03T11:41:49;21.40;19.80;13.40
49343;PMS5003;35210;41.606;-87.602;2022-07-03T11:44:18;21.20;20.80;13.60
49343;PMS5003;35210;41.606;-87.602;2022-07-03T11:46:49;16.60;16.60;11.60
49343;PMS5003;35210;41.606;-87.602;2022-07-03T11:49:20;17.00;15.60;10.20
49343;PMS5003;35210;41.606;-87.602;2022-07-03T11:51:54;22.20;20.60;13.80
49343;PMS5003;35210;41.606;-87.602;2022-07-03T11:54:23;22.20;19.60;12.00
49343;PMS5003;35210;41.606;-87.602;2022-07-03T11:56:52;22.20;18.00;13.00
49343;PMS5003;35210;41.606;-87.602;2022-07-03T11:59:20;24.00;21.20;13.60
49343;PMS5003;35210;41.606;-87.602;2022-07-03T12:01:49;20.20;18.40;12.40
49343;PMS5003;35210;41.606;-87.602;2022-07-03T12:04:18;20.40;18.80;12.00
49343;PMS5003;35210;41.606;-87.602;2022-07-03T12:06:50;20.80;19.40;12.80
49343;PMS5003;35210;41.606;-87.602;2022-07-03T12:09:20;19.00;17.60;12.80
49343;PMS5003;35210;41.606;-87.602;2022-07-03T12:11:56;20.20;18.80;12.00
49343;PMS5003;35210;41.606;-87.602;2022-07-03T12:14:36;20.80;20.60;12.00
49343;PMS5003;35210;41.606;-87.602;2022-07-03T12:17:07;19.80;18.60;11.80
49343;PMS5003;35210;41.606;-87.602;2022-07-03T12:19:37;18.60;17.40;12.20
49343;PMS5003;35210;41.606;-87.602;2022-07-03T12:22:05;16.80;16.20;11.20
49343;PMS5003;35210;41.606;-87.602;2022-07-03T12:24:33;13.00;11.60;7.40
49343;PMS5003;35210;41.606;-87.602;2022-07-03T12:27:06;16.80;16.00;9.80
49343;PMS5003;35210;41.606;-87.602;2022-07-03T12:29:35;18.00;17.60;10.60
49343;PMS5003;35210;41.606;-87.602;2022-07-03T12:32:09;17.40;17.40;12.00
49343;PMS5003;35210;41.606;-87.602;2022-07-03T12:34:37;17.20;14.60;10.60
49343;PMS5003;35210;41.606;-87.602;2022-07-03T12:37:06;18.60;17.80;11.80
49343;PMS5003;35210;41.606;-87.602;2022-07-03T12:39:40;20.40;20.40;13.80
49343;PMS5003;35210;41.606;-87.602;2022-07-03T12:42:16;25.60;23.80;14.00
49343;PMS5003;35210;41.606;-87.602;2022-07-03T12:44:57;18.80;18.00;12.00
49343;PMS5003;35210;41.606;-87.602;2022-07-03T12:47:30;20.60;18.80;13.40
49343;PMS5003;35210;41.606;-87.602;2022-07-03T12:49:59;21.80;20.00;14.00
49343;PMS5003;35210;41.606;-87.602;2022-07-03T12:52:29;21.60;19.20;13.80
49343;PMS5003;35210;41.606;-87.602;2022-07-03T12:54:59;21.00;20.20;13.00
49343;PMS5003;35210;41.606;-87.602;2022-07-03T12:57:29;19.40;18.60;13.20
49343;PMS5003;35210;41.606;-87.602;2022-07-03T13:00:15;23.00;19.60;12.60
49343;PMS5003;35210;41.606;-87.602;2022-07-03T13:02:48;19.80;19.80;13.00
49343;PMS5003;35210;41.606;-87.602;2022-07-03T13:05:16;23.60;20.80;14.40
49343;PMS5003;35210;41.606;-87.602;2022-07-03T13:07:46;26.20;23.00;14.40
49343;PMS5003;35210;41.606;-87.602;2022-07-03T13:10:19;19.40;18.20;12.00
49343;PMS5003;35210;41.606;-87.602;2022-07-03T13:12:52;20.00;20.00;12.00
49343;PMS5003;35210;41.606;-87.602;2022-07-03T13:15:23;17.20;17.20;10.80
49343;PMS5003;35210;41.606;-87.602;2022-07-03T13:17:59;22.80;19.40;11.20
49343;PMS5003;35210;41.606;-87.602;2022-07-03T13:20:28;24.60;21.00;13.20
49343;PMS5003;35210;41.606;-87.602;2022-07-03T13:22:58;24.60;23.40;14.80
49343;PMS5003;35210;41.606;-87.602;2022-07-03T13:25:28;19.60;19.60;13.20
49343;PMS5003;35210;41.606;-87.602;2022-07-03T13:28:03;24.20;19.60;13.20
49343;PMS5003;35210;41.606;-87.602;2022-07-03T13:30:33;21.00;20.60;13.20
49343;PMS5003;35210;41.606;-87.602;2022-07-03T13:33:02;19.80;19.40;13.80
49343;PMS5003;35210;41.606;-87.602;2022-07-03T13:35:31;17.40;17.40;9.40
49343;PMS5003;35210;41.606;-87.602;2022-07-03T13:38:00;21.40;20.80;14.00
49343;PMS5003;35210;41.606;-87.602;2022-07-03T13:40:28;19.60;16.80;11.60
49343;PMS5003;35210;41.606;-87.602;2022-07-03T13:42:56;22.00;18.20;12.00
49343;PMS5003;35210;41.606;-87.602;2022-07-03T13:45:25;21.40;19.60;13.60
49343;PMS5003;35210;41.606;-87.602;2022-07-03T13:47:53;22.00;21.60;15.00